Aérodrome :
LOGIN :

S'inscrire | Disclaimer

   EN    FR    IT 

 










Légende :    VFR   VFR Marginal   IFR   IFR Intensif   IFR Très Intensif
Visi : 
Plafond : 
>= 8 km
>= 3000ft
5 à 8 km
1000 à 3000 ft
1500m à 5 km
500 à 1000 ft
800 à 1500m
200 à 500 ft
< 800m
< 200 ft
Symboles :   Orages  Brouillard  Fortes neiges  Fortes précipitations  Vent > 20 kt
SIGMETs :   Divers  Orages  Givrage  Turbulence  Onde Orograph.  Cendres Volcan.






- Altitude de l'aérodrome : 1213 ft
- Code IATA : SCQ


LEST - Santiago de Compostela

DERNIER METAR :
  • 061830Z 00000KT 7000 FEW010 08/08 Q1023 TEMPO 3000 BR

METARs EXPIRÉS :
  • 061800Z 17004KT 9000 FEW012 08/08 Q1023 TEMPO 3000 BR
  • 061730Z 17005KT 9000 FEW012 08/07 Q1022 NOSIG
  • 061700Z 00000KT 9999 FEW012 10/09 Q1023 NOSIG
  • 061630Z 35002KT 9999 FEW012 11/09 Q1023 NOSIG
  • 061600Z 00000KT 9999 FEW012 12/09 Q1022 NOSIG

TAF TAF LEST
Valide du 06 à 18h jusqu'au 07 à 18h UTC


061700Z 0618/0718 VRB05KT 9999 SCT015 TX12/0715Z TN06/0706Z
TEMPO 0618/0711 3000 BR
TEMPO 0618/0710 1500 BCFG BR BKN005
PROB40
TEMPO 0620/0709 0350 FG VV001
TEMPO 0706/0717 3000 -RADZ BKN005 BKN010



MET'MAP, la Météo Aéronautique d'un coup d'oeil ! - Copyright ORBIFLY Décembre 2007 - Disclaimer

ORBIFLY MET'MAP TEAM :

Programmation & Développement : Alexandra Zaïnal
Sur une idée originale de : Baudouin d'Aumeries
Assistance à la programmation : Marc-Olivier Méhu
Soutien technique & logistique : Manuel Goepfert

Contact : metmap@orbifly.com




SOURCES & CREDITS :

   NOAA